createdAt,value
2022-11-17T00:02:17.592Z,100.00
2022-11-17T00:04:48.905Z,100.00
2022-11-17T00:07:16.024Z,100.00
2022-11-17T00:09:43.562Z,100.00
2022-11-17T00:12:32.963Z,100.00
2022-11-17T00:15:02.095Z,100.00
2022-11-17T00:17:30.851Z,100.00
2022-11-17T00:20:16.865Z,100.00
2022-11-17T00:22:45.602Z,100.00
2022-11-17T00:25:13.245Z,100.00
2022-11-17T00:27:40.411Z,100.00
2022-11-17T00:30:11.647Z,100.00
2022-11-17T00:32:59.742Z,100.00
2022-11-17T00:35:27.162Z,100.00
2022-11-17T00:38:13.246Z,100.00
2022-11-17T00:40:43.191Z,100.00
2022-11-17T00:43:10.684Z,100.00
2022-11-17T00:45:37.820Z,100.00
2022-11-17T00:48:09.288Z,100.00
2022-11-17T00:50:38.242Z,100.00
2022-11-17T00:53:05.655Z,100.00
2022-11-17T00:55:32.933Z,100.00
2022-11-17T00:58:01.150Z,100.00
2022-11-17T01:00:35.964Z,100.00
2022-11-17T01:03:04.285Z,100.00
2022-11-17T01:05:34.560Z,100.00
2022-11-17T01:08:01.677Z,100.00
2022-11-17T01:10:28.774Z,100.00
2022-11-17T01:12:57.140Z,100.00
2022-11-17T01:15:24.532Z,100.00
2022-11-17T01:17:53.097Z,100.00
2022-11-17T01:20:21.063Z,100.00
2022-11-17T01:22:50.207Z,100.00
2022-11-17T01:25:18.278Z,100.00
2022-11-17T01:27:48.685Z,100.00
2022-11-17T01:30:17.796Z,100.00
2022-11-17T01:32:46.721Z,100.00
2022-11-17T01:35:16.298Z,100.00
2022-11-17T01:37:43.522Z,100.00
2022-11-17T01:40:14.123Z,100.00
2022-11-17T01:42:42.298Z,100.00
2022-11-17T01:45:26.887Z,100.00
2022-11-17T01:48:00.520Z,100.00
2022-11-17T01:50:40.284Z,100.00
2022-11-17T01:53:12.367Z,100.00
2022-11-17T01:55:45.028Z,100.00
2022-11-17T01:58:18.475Z,100.00
2022-11-17T02:00:46.576Z,100.00
2022-11-17T02:03:14.354Z,100.00
2022-11-17T02:05:55.135Z,100.00
2022-11-17T02:08:25.444Z,100.00
2022-11-17T02:10:54.204Z,100.00
2022-11-17T02:13:23.084Z,100.00
2022-11-17T02:15:50.819Z,100.00
2022-11-17T02:18:18.447Z,100.00
2022-11-17T02:21:11.287Z,100.00
2022-11-17T02:24:09.782Z,100.00
2022-11-17T02:26:48.922Z,100.00
2022-11-17T02:29:52.293Z,100.00
2022-11-17T02:32:30.365Z,100.00
2022-11-17T02:35:22.198Z,100.00
2022-11-17T02:38:19.328Z,100.00
2022-11-17T02:41:06.680Z,100.00
2022-11-17T02:44:04.067Z,100.00
2022-11-17T02:47:18.999Z,100.00
2022-11-17T02:49:58.500Z,100.00
2022-11-17T02:52:27.699Z,100.00
2022-11-17T02:55:04.123Z,100.00
2022-11-17T02:57:38.178Z,100.00
2022-11-17T03:00:18.177Z,100.00
2022-11-17T03:03:03.489Z,100.00
2022-11-17T03:06:07.825Z,100.00
2022-11-17T03:08:47.235Z,100.00
2022-11-17T03:11:22.681Z,100.00
2022-11-17T03:14:02.595Z,100.00
2022-11-17T03:16:54.240Z,100.00
2022-11-17T03:19:56.797Z,100.00
2022-11-17T03:22:43.894Z,100.00
2022-11-17T03:25:17.469Z,100.00
2022-11-17T03:27:49.175Z,100.00
2022-11-17T03:30:17.854Z,100.00
2022-11-17T03:32:51.495Z,100.00
2022-11-17T03:35:23.852Z,100.00
2022-11-17T03:37:58.971Z,100.00
2022-11-17T03:40:31.444Z,100.00
2022-11-17T03:43:02.445Z,100.00
2022-11-17T03:45:37.783Z,100.00
2022-11-17T03:48:20.387Z,100.00
2022-11-17T03:50:59.822Z,100.00
2022-11-17T03:53:26.953Z,100.00
2022-11-17T03:56:17.340Z,100.00
2022-11-17T03:59:00.746Z,100.00
2022-11-17T04:01:31.427Z,100.00
2022-11-17T04:03:58.909Z,100.00
2022-11-17T04:06:26.367Z,100.00
2022-11-17T04:08:53.403Z,100.00
2022-11-17T04:11:39.217Z,100.00
2022-11-17T04:14:25.505Z,100.00
2022-11-17T04:16:53.923Z,100.00
2022-11-17T04:19:20.960Z,100.00
2022-11-17T04:21:48.310Z,100.00
2022-11-17T04:24:18.336Z,100.00
2022-11-17T04:27:06.570Z,100.00
2022-11-17T04:29:36.684Z,100.00
2022-11-17T04:32:04.410Z,100.00
2022-11-17T04:34:32.979Z,100.00
2022-11-17T04:37:05.363Z,100.00
2022-11-17T04:39:38.728Z,100.00
2022-11-17T04:42:06.114Z,100.00
2022-11-17T04:44:33.442Z,100.00
2022-11-17T04:47:03.291Z,100.00
2022-11-17T04:49:32.344Z,100.00
2022-11-17T04:51:59.381Z,100.00
2022-11-17T04:54:26.451Z,100.00
2022-11-17T04:56:55.047Z,100.00
2022-11-17T04:59:22.386Z,100.00
2022-11-17T05:01:49.793Z,100.00
2022-11-17T05:04:39.764Z,100.00
2022-11-17T05:07:08.601Z,100.00
2022-11-17T05:09:36.238Z,100.00
2022-11-17T05:12:22.373Z,100.00
2022-11-17T05:14:50.576Z,100.00
2022-11-17T05:17:18.120Z,100.00
2022-11-17T05:19:47.189Z,100.00
2022-11-17T05:22:39.950Z,100.00
2022-11-17T05:25:08.501Z,100.00
2022-11-17T05:27:36.176Z,100.00
2022-11-17T05:30:05.723Z,100.00
2022-11-17T05:32:32.809Z,100.00
2022-11-17T05:35:01.483Z,100.00
2022-11-17T05:37:28.649Z,100.00
2022-11-17T05:39:55.679Z,100.00
2022-11-17T05:42:23.058Z,100.00
2022-11-17T05:44:51.207Z,100.00
2022-11-17T05:47:23.773Z,100.00
2022-11-17T05:49:53.153Z,100.00
2022-11-17T05:52:20.950Z,100.00
2022-11-17T05:54:48.124Z,100.00
2022-11-17T05:57:20.953Z,100.00
2022-11-17T05:59:59.765Z,100.00
2022-11-17T06:02:45.289Z,100.00
2022-11-17T06:05:18.705Z,100.00
2022-11-17T06:07:51.646Z,100.00
2022-11-17T06:10:22.969Z,100.00
2022-11-17T06:12:52.087Z,100.00
2022-11-17T06:15:21.795Z,100.00
2022-11-17T06:17:56.205Z,100.00
2022-11-17T06:20:43.376Z,100.00
2022-11-17T06:23:12.227Z,100.00
2022-11-17T06:25:40.351Z,100.00
2022-11-17T06:28:14.258Z,100.00
2022-11-17T06:30:44.409Z,100.00
2022-11-17T06:33:15.667Z,100.00
2022-11-17T06:35:45.541Z,100.00
2022-11-17T06:38:14.750Z,100.00
2022-11-17T06:40:45.314Z,100.00
2022-11-17T06:43:15.254Z,100.00
2022-11-17T06:45:47.579Z,100.00
2022-11-17T06:48:17.310Z,100.00
2022-11-17T06:50:48.919Z,100.00
2022-11-17T06:53:17.611Z,100.00
2022-11-17T06:55:47.826Z,100.00
2022-11-17T06:58:18.204Z,100.00
2022-11-17T07:00:48.639Z,100.00
2022-11-17T07:03:17.802Z,100.00
2022-11-17T07:05:47.281Z,100.00
2022-11-17T07:08:19.046Z,100.00
2022-11-17T07:10:49.309Z,100.00
2022-11-17T07:13:18.123Z,100.00
2022-11-17T07:15:46.972Z,100.00
2022-11-17T07:18:16.719Z,100.00
2022-11-17T07:20:46.991Z,100.00
2022-11-17T07:23:18.737Z,100.00
2022-11-17T07:25:52.355Z,100.00
2022-11-17T07:28:21.668Z,100.00
2022-11-17T07:30:59.315Z,100.00
2022-11-17T07:33:27.690Z,100.00
2022-11-17T07:35:56.099Z,100.00
2022-11-17T07:38:25.275Z,100.00
2022-11-17T07:40:57.614Z,100.00
2022-11-17T07:43:25.440Z,100.00
2022-11-17T07:45:53.382Z,100.00
2022-11-17T07:48:21.779Z,100.00
2022-11-17T07:50:49.383Z,100.00
2022-11-17T07:53:17.720Z,100.00
2022-11-17T07:55:47.119Z,100.00
2022-11-17T07:58:15.207Z,100.00
2022-11-17T08:00:44.305Z,100.00
2022-11-17T08:03:13.975Z,100.00
2022-11-17T08:05:43.717Z,100.00
2022-11-17T08:08:13.132Z,100.00
2022-11-17T08:10:41.106Z,100.00
2022-11-17T08:13:11.080Z,100.00
2022-11-17T08:15:38.576Z,100.00
2022-11-17T08:18:09.083Z,100.00
2022-11-17T08:20:42.628Z,100.00
2022-11-17T08:23:10.212Z,100.00
2022-11-17T08:25:37.424Z,100.00
2022-11-17T08:28:06.689Z,100.00
2022-11-17T08:30:36.131Z,100.00
2022-11-17T08:33:03.938Z,100.00
2022-11-17T08:35:37.302Z,100.00
2022-11-17T08:38:06.014Z,100.00
2022-11-17T08:40:33.858Z,100.00
2022-11-17T08:43:03.791Z,100.00
2022-11-17T08:45:36.705Z,100.00
2022-11-17T08:48:09.980Z,100.00
2022-11-17T08:50:39.537Z,100.00
2022-11-17T08:53:17.393Z,100.00
2022-11-17T08:55:48.471Z,100.00
2022-11-17T08:58:19.786Z,100.00
2022-11-17T09:00:51.002Z,100.00
2022-11-17T09:03:18.410Z,100.00
2022-11-17T09:05:50.902Z,100.00
2022-11-17T09:08:49.201Z,100.00
2022-11-17T09:11:11.839Z,100.00
2022-11-17T09:13:42.637Z,100.00
2022-11-17T09:16:12.563Z,100.00
2022-11-17T09:18:41.554Z,99.67
2022-11-17T09:21:15.746Z,99.91
2022-11-17T09:24:02.599Z,99.97
2022-11-17T09:26:31.456Z,98.34
2022-11-17T09:29:03.273Z,97.22
2022-11-17T09:31:30.973Z,95.51
2022-11-17T09:34:00.830Z,95.92
2022-11-17T09:36:32.297Z,96.64
2022-11-17T09:39:02.530Z,96.65
2022-11-17T09:41:48.184Z,96.79
2022-11-17T09:44:39.843Z,96.98
2022-11-17T09:47:36.207Z,96.46
2022-11-17T09:50:28.176Z,94.62
2022-11-17T09:53:07.829Z,94.64
2022-11-17T09:55:39.796Z,94.06
2022-11-17T09:58:33.954Z,95.25
2022-11-17T10:01:02.006Z,95.63
2022-11-17T10:03:40.083Z,94.67
2022-11-17T10:06:23.120Z,94.32
2022-11-17T10:09:01.233Z,89.55
2022-11-17T10:11:34.133Z,91.07
2022-11-17T10:14:08.437Z,91.12
2022-11-17T10:16:37.772Z,92.90
2022-11-17T10:19:15.818Z,91.63
2022-11-17T10:21:43.011Z,93.15
2022-11-17T10:24:10.655Z,90.76
2022-11-17T10:26:48.652Z,91.96
2022-11-17T10:29:23.243Z,91.51
2022-11-17T10:31:50.598Z,91.19
2022-11-17T10:34:38.812Z,93.48
2022-11-17T10:37:13.511Z,93.74
2022-11-17T10:39:43.298Z,93.04
2022-11-17T10:42:25.395Z,92.04
2022-11-17T10:44:58.588Z,91.32
2022-11-17T10:47:44.231Z,91.14
2022-11-17T10:50:31.931Z,90.74
2022-11-17T10:53:21.366Z,89.06
2022-11-17T10:55:54.761Z,88.22
2022-11-17T10:58:24.597Z,86.97
2022-11-17T11:00:59.062Z,85.47
2022-11-17T11:03:31.191Z,83.17
2022-11-17T11:06:02.783Z,83.08
2022-11-17T11:08:38.582Z,83.13
2022-11-17T11:11:16.047Z,81.76
2022-11-17T11:13:52.145Z,83.85
2022-11-17T11:16:20.261Z,84.56
2022-11-17T11:18:52.889Z,84.94
2022-11-17T11:21:28.312Z,83.71
2022-11-17T11:24:10.513Z,83.49
2022-11-17T11:27:00.793Z,82.68
2022-11-17T11:29:59.366Z,84.03
2022-11-17T11:33:03.359Z,85.32
2022-11-17T11:36:15.574Z,85.60
2022-11-17T11:38:55.230Z,85.72
2022-11-17T11:41:47.860Z,85.76
2022-11-17T11:44:38.710Z,86.33
2022-11-17T11:47:07.460Z,86.21
2022-11-17T11:49:59.930Z,84.47
2022-11-17T11:52:35.681Z,84.57
2022-11-17T11:55:20.954Z,84.04
2022-11-17T11:58:06.004Z,84.45
2022-11-17T12:00:37.450Z,81.54
2022-11-17T12:03:20.843Z,82.36
2022-11-17T12:06:25.171Z,80.54
2022-11-17T12:09:07.323Z,81.50
2022-11-17T12:11:53.649Z,79.58
2022-11-17T12:14:22.089Z,80.12
2022-11-17T12:16:49.543Z,81.18
2022-11-17T12:19:50.297Z,91.37
2022-11-17T12:22:22.704Z,85.81
2022-11-17T12:24:56.371Z,76.90
2022-11-17T12:27:35.858Z,81.52
2022-11-17T12:30:12.367Z,78.15
2022-11-17T12:32:49.490Z,77.86
2022-11-17T12:35:27.252Z,78.58
2022-11-17T12:38:22.186Z,82.24
2022-11-17T12:40:51.237Z,80.90
2022-11-17T12:43:25.465Z,79.04
2022-11-17T12:45:52.425Z,80.01
2022-11-17T12:48:33.489Z,79.95
2022-11-17T12:51:07.661Z,79.47
2022-11-17T12:53:39.937Z,79.24
2022-11-17T12:56:19.775Z,81.35
2022-11-17T12:59:17.846Z,77.64
2022-11-17T13:02:21.866Z,78.07
2022-11-17T13:04:57.148Z,79.30
2022-11-17T13:07:26.212Z,79.92
2022-11-17T13:09:58.980Z,80.72
2022-11-17T13:12:30.649Z,79.80
2022-11-17T13:15:00.420Z,82.19
2022-11-17T13:17:39.653Z,81.53
2022-11-17T13:20:28.814Z,80.34
2022-11-17T13:23:26.111Z,81.35
2022-11-17T13:26:37.863Z,81.86
2022-11-17T13:29:13.815Z,85.74
2022-11-17T13:31:41.225Z,81.22
2022-11-17T13:34:17.454Z,83.28
2022-11-17T13:37:00.132Z,82.31
2022-11-17T13:39:28.131Z,76.95
2022-11-17T13:42:01.065Z,78.92
2022-11-17T13:44:28.863Z,81.34
2022-11-17T13:46:56.222Z,82.59
2022-11-17T13:49:36.207Z,83.13
2022-11-17T13:52:14.213Z,84.62
2022-11-17T13:54:45.017Z,86.55
2022-11-17T13:57:25.326Z,86.91
2022-11-17T13:59:53.189Z,87.49
2022-11-17T14:02:20.411Z,87.05
2022-11-17T14:05:14.473Z,88.30
2022-11-17T14:07:43.561Z,87.58
2022-11-17T14:10:19.960Z,87.62
2022-11-17T14:13:13.932Z,88.42
2022-11-17T14:15:42.744Z,89.32
2022-11-17T14:18:34.277Z,89.74
2022-11-17T14:21:15.262Z,91.70
2022-11-17T14:23:44.260Z,92.72
2022-11-17T14:26:24.930Z,93.02
2022-11-17T14:28:52.654Z,92.58
2022-11-17T14:31:20.122Z,92.11
2022-11-17T14:33:47.260Z,93.68
2022-11-17T14:36:16.711Z,93.50
2022-11-17T14:38:45.418Z,94.20
2022-11-17T14:41:16.109Z,93.71
2022-11-17T14:43:43.639Z,94.43
2022-11-17T14:46:18.889Z,95.10
2022-11-17T14:48:46.258Z,96.44
2022-11-17T14:51:15.618Z,96.85
2022-11-17T14:53:44.093Z,96.88
2022-11-17T14:56:16.383Z,97.31
2022-11-17T14:58:43.621Z,98.02
2022-11-17T15:01:15.487Z,99.74
2022-11-17T15:03:42.924Z,99.44
2022-11-17T15:06:18.211Z,100.00
2022-11-17T15:08:58.310Z,100.00
2022-11-17T15:11:26.622Z,100.00
2022-11-17T15:13:54.005Z,100.00
2022-11-17T15:16:21.127Z,100.00
2022-11-17T15:18:48.614Z,100.00
2022-11-17T15:21:17.014Z,100.00
2022-11-17T15:23:44.647Z,100.00
2022-11-17T15:26:14.324Z,100.00
2022-11-17T15:28:42.063Z,100.00
2022-11-17T15:31:18.305Z,100.00
2022-11-17T15:33:47.105Z,100.00
2022-11-17T15:36:16.833Z,100.00
2022-11-17T15:38:43.968Z,100.00
2022-11-17T15:41:12.596Z,100.00
2022-11-17T15:43:41.576Z,100.00
2022-11-17T15:46:18.694Z,100.00
2022-11-17T15:48:49.122Z,100.00
2022-11-17T15:51:18.268Z,100.00
2022-11-17T15:53:48.890Z,100.00
2022-11-17T15:56:21.421Z,100.00
2022-11-17T15:58:54.296Z,100.00
2022-11-17T16:01:24.948Z,100.00
2022-11-17T16:03:56.634Z,100.00
2022-11-17T16:06:23.810Z,100.00
2022-11-17T16:08:51.999Z,100.00
2022-11-17T16:11:19.335Z,100.00
2022-11-17T16:13:46.760Z,100.00
2022-11-17T16:16:15.316Z,100.00
2022-11-17T16:18:42.686Z,100.00
2022-11-17T16:21:12.342Z,100.00
2022-11-17T16:23:39.508Z,100.00
2022-11-17T16:26:07.501Z,100.00
2022-11-17T16:28:34.655Z,100.00
2022-11-17T16:31:18.895Z,100.00
2022-11-17T16:33:56.660Z,100.00
2022-11-17T16:36:28.995Z,100.00
2022-11-17T16:39:01.510Z,100.00
2022-11-17T16:41:32.521Z,100.00
2022-11-17T16:44:00.504Z,100.00
2022-11-17T16:46:30.299Z,100.00
2022-11-17T16:49:01.724Z,100.00
2022-11-17T16:51:29.234Z,100.00
2022-11-17T16:53:59.050Z,100.00
2022-11-17T16:56:26.301Z,100.00
2022-11-17T16:58:54.831Z,100.00
2022-11-17T17:01:24.597Z,100.00
2022-11-17T17:03:56.031Z,100.00
2022-11-17T17:06:23.710Z,100.00
2022-11-17T17:08:55.501Z,100.00
2022-11-17T17:11:23.090Z,100.00
2022-11-17T17:13:50.495Z,100.00
2022-11-17T17:16:19.488Z,100.00
2022-11-17T17:18:46.906Z,100.00
2022-11-17T17:21:17.181Z,100.00
2022-11-17T17:23:45.667Z,100.00
2022-11-17T17:26:16.846Z,100.00
2022-11-17T17:28:46.401Z,100.00
2022-11-17T17:31:20.971Z,100.00
2022-11-17T17:33:50.739Z,100.00
2022-11-17T17:36:20.777Z,100.00
2022-11-17T17:38:53.616Z,100.00
2022-11-17T17:41:27.220Z,100.00
2022-11-17T17:43:57.138Z,100.00
2022-11-17T17:46:25.226Z,100.00
2022-11-17T17:48:52.556Z,100.00
2022-11-17T17:51:21.433Z,100.00
2022-11-17T17:53:51.456Z,100.00
2022-11-17T17:56:20.613Z,100.00
2022-11-17T17:58:51.837Z,100.00
2022-11-17T18:01:25.020Z,100.00
2022-11-17T18:03:53.996Z,100.00
2022-11-17T18:06:22.291Z,100.00
2022-11-17T18:08:49.993Z,100.00
2022-11-17T18:11:19.832Z,100.00
2022-11-17T18:13:52.429Z,100.00
2022-11-17T18:16:24.281Z,100.00
2022-11-17T18:18:57.107Z,100.00
2022-11-17T18:21:25.438Z,100.00
2022-11-17T18:23:53.598Z,100.00
2022-11-17T18:26:25.921Z,100.00
2022-11-17T18:29:05.111Z,100.00
2022-11-17T18:31:34.009Z,100.00
2022-11-17T18:34:04.628Z,100.00
2022-11-17T18:36:32.161Z,100.00
2022-11-17T18:39:02.090Z,100.00
2022-11-17T18:41:30.958Z,100.00
2022-11-17T18:43:58.657Z,100.00
2022-11-17T18:46:30.712Z,100.00
2022-11-17T18:48:58.603Z,100.00
2022-11-17T18:51:28.161Z,100.00
2022-11-17T18:53:57.392Z,100.00
2022-11-17T18:56:27.286Z,100.00
2022-11-17T18:58:54.488Z,100.00
2022-11-17T19:01:28.055Z,100.00
2022-11-17T19:03:58.074Z,100.00
2022-11-17T19:06:25.774Z,100.00
2022-11-17T19:08:53.807Z,100.00
2022-11-17T19:11:22.409Z,100.00
2022-11-17T19:13:49.945Z,100.00
2022-11-17T19:16:19.579Z,100.00
2022-11-17T19:18:48.449Z,100.00
2022-11-17T19:21:30.817Z,100.00
2022-11-17T19:24:00.352Z,100.00
2022-11-17T19:26:29.894Z,100.00
2022-11-17T19:29:02.244Z,100.00
2022-11-17T19:31:29.960Z,100.00
2022-11-17T19:33:57.961Z,100.00
2022-11-17T19:36:29.902Z,100.00
2022-11-17T19:38:58.739Z,100.00
2022-11-17T19:41:26.842Z,100.00
2022-11-17T19:43:58.436Z,100.00
2022-11-17T19:46:27.571Z,100.00
2022-11-17T19:48:58.283Z,100.00
2022-11-17T19:51:29.218Z,100.00
2022-11-17T19:54:01.644Z,100.00
2022-11-17T19:56:29.347Z,100.00
2022-11-17T19:58:56.987Z,100.00
2022-11-17T20:01:28.982Z,100.00
2022-11-17T20:03:57.563Z,100.00
2022-11-17T20:06:28.778Z,100.00
2022-11-17T20:08:57.407Z,100.00
2022-11-17T20:11:27.200Z,100.00
2022-11-17T20:13:55.184Z,100.00
2022-11-17T20:16:24.720Z,100.00
2022-11-17T20:18:57.592Z,100.00
2022-11-17T20:21:26.107Z,100.00
2022-11-17T20:23:54.315Z,100.00
2022-11-17T20:26:26.746Z,100.00
2022-11-17T20:28:55.225Z,100.00
2022-11-17T20:31:31.232Z,100.00
2022-11-17T20:34:00.709Z,100.00
2022-11-17T20:36:29.889Z,100.00
2022-11-17T20:39:00.191Z,100.00
2022-11-17T20:41:28.233Z,100.00
2022-11-17T20:43:56.383Z,100.00
2022-11-17T20:46:24.215Z,100.00
2022-11-17T20:48:52.138Z,100.00
2022-11-17T20:51:24.303Z,100.00
2022-11-17T20:53:51.784Z,100.00
2022-11-17T20:56:19.028Z,100.00
2022-11-17T20:58:46.123Z,100.00
2022-11-17T21:01:19.219Z,100.00
2022-11-17T21:03:46.736Z,100.00
2022-11-17T21:06:15.398Z,100.00
2022-11-17T21:08:44.329Z,100.00
2022-11-17T21:11:46.888Z,100.00
2022-11-17T21:14:14.316Z,100.00
2022-11-17T21:16:45.475Z,100.00
2022-11-17T21:19:14.270Z,100.00
2022-11-17T21:21:42.973Z,100.00
2022-11-17T21:24:10.248Z,100.00
2022-11-17T21:26:37.604Z,100.00
2022-11-17T21:29:06.836Z,100.00
2022-11-17T21:31:35.086Z,100.00
2022-11-17T21:34:04.593Z,100.00
2022-11-17T21:36:33.406Z,100.00
2022-11-17T21:39:00.892Z,100.00
2022-11-17T21:41:30.157Z,100.00
2022-11-17T21:44:02.095Z,100.00
2022-11-17T21:46:31.925Z,100.00
2022-11-17T21:49:01.406Z,100.00
2022-11-17T21:51:34.153Z,100.00
2022-11-17T21:54:04.361Z,100.00
2022-11-17T21:56:32.195Z,100.00
2022-11-17T21:59:01.440Z,100.00
2022-11-17T22:01:30.062Z,100.00
2022-11-17T22:03:57.506Z,100.00
2022-11-17T22:06:26.085Z,100.00
2022-11-17T22:08:54.684Z,100.00
2022-11-17T22:11:38.181Z,100.00
2022-11-17T22:14:08.355Z,100.00
2022-11-17T22:16:38.150Z,100.00
2022-11-17T22:19:06.135Z,100.00
2022-11-17T22:21:33.229Z,100.00
2022-11-17T22:24:00.574Z,100.00
2022-11-17T22:26:29.344Z,100.00
2022-11-17T22:28:56.387Z,100.00
2022-11-17T22:31:24.274Z,100.00
2022-11-17T22:33:51.624Z,100.00
2022-11-17T22:36:19.393Z,100.00
2022-11-17T22:38:50.290Z,100.00
2022-11-17T22:41:18.667Z,100.00
2022-11-17T22:43:53.104Z,100.00
2022-11-17T22:46:22.033Z,100.00
2022-11-17T22:48:49.511Z,100.00
2022-11-17T22:51:36.130Z,100.00
2022-11-17T22:54:04.722Z,100.00
2022-11-17T22:56:32.321Z,100.00
2022-11-17T22:59:00.058Z,100.00
2022-11-17T23:01:27.700Z,100.00
2022-11-17T23:03:54.787Z,100.00
2022-11-17T23:06:22.904Z,100.00
2022-11-17T23:08:50.714Z,100.00
2022-11-17T23:14:08.017Z,100.00
2022-11-17T23:16:36.746Z,100.00
2022-11-17T23:19:04.501Z,100.00
2022-11-17T23:21:32.150Z,100.00
2022-11-17T23:23:59.177Z,100.00
2022-11-17T23:26:26.256Z,100.00
2022-11-17T23:28:53.620Z,100.00
2022-11-17T23:31:20.854Z,100.00
2022-11-17T23:33:49.018Z,100.00
2022-11-17T23:36:19.282Z,100.00
2022-11-17T23:38:47.410Z,100.00
2022-11-17T23:41:16.930Z,100.00
2022-11-17T23:43:44.712Z,100.00
2022-11-17T23:46:14.001Z,100.00
2022-11-17T23:48:42.456Z,100.00
2022-11-17T23:51:15.152Z,100.00
2022-11-17T23:53:43.000Z,100.00
2022-11-17T23:56:10.771Z,100.00
2022-11-17T23:58:37.818Z,100.00
